sensor_id;sensor_type;location;lat;lon;timestamp;temperature;humidity
69823;SHT31;57119;52.516;13.508;2022-07-29T00:01:59;15.35;72.64
69823;SHT31;57119;52.516;13.508;2022-07-29T00:04:24;15.37;72.31
69823;SHT31;57119;52.516;13.508;2022-07-29T00:06:50;15.35;72.24
69823;SHT31;57119;52.516;13.508;2022-07-29T00:09:15;15.30;72.78
69823;SHT31;57119;52.516;13.508;2022-07-29T00:11:40;15.27;73.01
69823;SHT31;57119;52.516;13.508;2022-07-29T00:14:06;15.26;73.67
69823;SHT31;57119;52.516;13.508;2022-07-29T00:16:31;15.20;73.36
69823;SHT31;57119;52.516;13.508;2022-07-29T00:18:56;15.19;73.68
69823;SHT31;57119;52.516;13.508;2022-07-29T00:21:22;15.20;74.01
69823;SHT31;57119;52.516;13.508;2022-07-29T00:23:47;15.23;73.46
69823;SHT31;57119;52.516;13.508;2022-07-29T00:26:12;15.20;74.06
69823;SHT31;57119;52.516;13.508;2022-07-29T00:28:38;15.19;74.09
69823;SHT31;57119;52.516;13.508;2022-07-29T00:31:03;15.13;74.15
69823;SHT31;57119;52.516;13.508;2022-07-29T00:33:29;15.22;73.81
69823;SHT31;57119;52.516;13.508;2022-07-29T00:35:54;15.22;74.00
69823;SHT31;57119;52.516;13.508;2022-07-29T00:38:19;15.18;74.26
69823;SHT31;57119;52.516;13.508;2022-07-29T00:40:45;15.19;74.50
69823;SHT31;57119;52.516;13.508;2022-07-29T00:43:11;15.22;74.14
69823;SHT31;57119;52.516;13.508;2022-07-29T00:45:38;15.20;74.24
69823;SHT31;57119;52.516;13.508;2022-07-29T00:48:03;15.20;74.57
69823;SHT31;57119;52.516;13.508;2022-07-29T00:50:30;15.15;74.57
69823;SHT31;57119;52.516;13.508;2022-07-29T00:52:56;15.20;74.46
69823;SHT31;57119;52.516;13.508;2022-07-29T00:55:22;15.15;74.63
69823;SHT31;57119;52.516;13.508;2022-07-29T00:57:47;15.19;74.58
69823;SHT31;57119;52.516;13.508;2022-07-29T01:00:17;15.09;74.91
69823;SHT31;57119;52.516;13.508;2022-07-29T01:02:43;15.09;74.98
69823;SHT31;57119;52.516;13.508;2022-07-29T01:05:11;15.13;74.86
69823;SHT31;57119;52.516;13.508;2022-07-29T01:07:36;15.09;74.94
69823;SHT31;57119;52.516;13.508;2022-07-29T01:10:04;15.10;74.72
69823;SHT31;57119;52.516;13.508;2022-07-29T01:12:30;15.10;75.12
69823;SHT31;57119;52.516;13.508;2022-07-29T01:14:59;15.02;75.43
69823;SHT31;57119;52.516;13.508;2022-07-29T01:17:30;15.02;75.03
69823;SHT31;57119;52.516;13.508;2022-07-29T01:20:10;14.95;75.42
69823;SHT31;57119;52.516;13.508;2022-07-29T01:25:48;14.91;75.50
69823;SHT31;57119;52.516;13.508;2022-07-29T01:31:02;14.93;75.75
69823;SHT31;57119;52.516;13.508;2022-07-29T01:33:28;14.92;75.92
69823;SHT31;57119;52.516;13.508;2022-07-29T01:36:37;14.93;75.89
69823;SHT31;57119;52.516;13.508;2022-07-29T01:39:16;14.93;76.01
69823;SHT31;57119;52.516;13.508;2022-07-29T01:41:59;14.87;76.40
69823;SHT31;57119;52.516;13.508;2022-07-29T01:44:31;14.91;75.90
69823;SHT31;57119;52.516;13.508;2022-07-29T01:47:02;14.89;75.63
69823;SHT31;57119;52.516;13.508;2022-07-29T01:49:31;14.87;76.37
69823;SHT31;57119;52.516;13.508;2022-07-29T01:52:02;14.88;76.14
69823;SHT31;57119;52.516;13.508;2022-07-29T01:54:41;14.85;76.53
69823;SHT31;57119;52.516;13.508;2022-07-29T01:57:13;14.77;76.53
69823;SHT31;57119;52.516;13.508;2022-07-29T01:59:40;14.79;76.21
69823;SHT31;57119;52.516;13.508;2022-07-29T02:02:07;14.74;76.63
69823;SHT31;57119;52.516;13.508;2022-07-29T02:04:35;14.74;76.89
69823;SHT31;57119;52.516;13.508;2022-07-29T02:07:05;14.81;76.35
69823;SHT31;57119;52.516;13.508;2022-07-29T02:09:33;14.72;76.72
69823;SHT31;57119;52.516;13.508;2022-07-29T02:12:00;14.67;77.52
69823;SHT31;57119;52.516;13.508;2022-07-29T02:14:30;14.68;76.90
69823;SHT31;57119;52.516;13.508;2022-07-29T02:16:59;14.63;76.48
69823;SHT31;57119;52.516;13.508;2022-07-29T02:19:26;14.61;77.47
69823;SHT31;57119;52.516;13.508;2022-07-29T02:21:53;14.61;76.87
69823;SHT31;57119;52.516;13.508;2022-07-29T02:24:20;14.65;77.37
69823;SHT31;57119;52.516;13.508;2022-07-29T02:26:49;14.60;76.94
69823;SHT31;57119;52.516;13.508;2022-07-29T02:29:15;14.61;77.22
69823;SHT31;57119;52.516;13.508;2022-07-29T02:31:42;14.63;77.64
69823;SHT31;57119;52.516;13.508;2022-07-29T02:34:10;14.57;77.95
69823;SHT31;57119;52.516;13.508;2022-07-29T02:36:37;14.63;77.32
69823;SHT31;57119;52.516;13.508;2022-07-29T02:39:03;14.61;77.30
69823;SHT31;57119;52.516;13.508;2022-07-29T02:41:32;14.63;77.47
69823;SHT31;57119;52.516;13.508;2022-07-29T02:44:06;14.58;77.83
69823;SHT31;57119;52.516;13.508;2022-07-29T02:46:35;14.57;77.38
69823;SHT31;57119;52.516;13.508;2022-07-29T02:49:18;14.58;77.29
69823;SHT31;57119;52.516;13.508;2022-07-29T02:51:51;14.64;77.22
69823;SHT31;57119;52.516;13.508;2022-07-29T02:54:31;14.67;76.96
69823;SHT31;57119;52.516;13.508;2022-07-29T02:56:59;14.67;77.37
69823;SHT31;57119;52.516;13.508;2022-07-29T02:59:27;14.67;77.27
69823;SHT31;57119;52.516;13.508;2022-07-29T03:01:55;14.68;77.33
69823;SHT31;57119;52.516;13.508;2022-07-29T03:04:24;14.69;77.02
69823;SHT31;57119;52.516;13.508;2022-07-29T03:06:52;14.69;76.93
69823;SHT31;57119;52.516;13.508;2022-07-29T03:09:18;14.69;76.99
69823;SHT31;57119;52.516;13.508;2022-07-29T03:11:44;14.67;77.96
69823;SHT31;57119;52.516;13.508;2022-07-29T03:14:10;14.75;77.34
69823;SHT31;57119;52.516;13.508;2022-07-29T03:16:36;14.67;77.29
69823;SHT31;57119;52.516;13.508;2022-07-29T03:19:03;14.68;77.68
69823;SHT31;57119;52.516;13.508;2022-07-29T03:21:29;14.68;77.06
69823;SHT31;57119;52.516;13.508;2022-07-29T03:23:54;14.78;76.90
69823;SHT31;57119;52.516;13.508;2022-07-29T03:26:19;14.82;76.93
69823;SHT31;57119;52.516;13.508;2022-07-29T03:28:45;14.88;76.39
69823;SHT31;57119;52.516;13.508;2022-07-29T03:31:11;14.85;76.29
69823;SHT31;57119;52.516;13.508;2022-07-29T03:33:36;14.85;77.05
69823;SHT31;57119;52.516;13.508;2022-07-29T03:36:01;14.85;76.28
69823;SHT31;57119;52.516;13.508;2022-07-29T03:38:29;14.85;76.13
69823;SHT31;57119;52.516;13.508;2022-07-29T03:41:06;14.85;76.12
69823;SHT31;57119;52.516;13.508;2022-07-29T03:43:36;14.89;76.29
69823;SHT31;57119;52.516;13.508;2022-07-29T03:46:04;14.87;76.68
69823;SHT31;57119;52.516;13.508;2022-07-29T03:48:32;14.84;76.87
69823;SHT31;57119;52.516;13.508;2022-07-29T03:50:59;14.85;76.64
69823;SHT31;57119;52.516;13.508;2022-07-29T03:53:24;14.87;77.10
69823;SHT31;57119;52.516;13.508;2022-07-29T03:55:52;14.84;76.91
69823;SHT31;57119;52.516;13.508;2022-07-29T03:58:19;14.89;77.12
69823;SHT31;57119;52.516;13.508;2022-07-29T04:00:45;14.81;77.59
69823;SHT31;57119;52.516;13.508;2022-07-29T04:03:11;14.84;77.22
69823;SHT31;57119;52.516;13.508;2022-07-29T04:05:37;14.91;76.90
69823;SHT31;57119;52.516;13.508;2022-07-29T04:08:02;14.95;76.78
69823;SHT31;57119;52.516;13.508;2022-07-29T04:10:28;14.96;76.66
69823;SHT31;57119;52.516;13.508;2022-07-29T04:12:53;15.00;76.44
69823;SHT31;57119;52.516;13.508;2022-07-29T04:15:19;15.12;76.44
69823;SHT31;57119;52.516;13.508;2022-07-29T04:17:44;15.16;76.68
69823;SHT31;57119;52.516;13.508;2022-07-29T04:20:10;15.16;76.67
69823;SHT31;57119;52.516;13.508;2022-07-29T04:22:41;15.12;76.46
69823;SHT31;57119;52.516;13.508;2022-07-29T04:25:07;15.22;76.49
69823;SHT31;57119;52.516;13.508;2022-07-29T04:27:32;15.23;76.70
69823;SHT31;57119;52.516;13.508;2022-07-29T04:29:58;15.33;76.32
69823;SHT31;57119;52.516;13.508;2022-07-29T04:32:24;15.29;75.56
69823;SHT31;57119;52.516;13.508;2022-07-29T04:34:49;15.35;76.25
69823;SHT31;57119;52.516;13.508;2022-07-29T04:37:14;15.47;76.11
69823;SHT31;57119;52.516;13.508;2022-07-29T04:39:40;15.56;75.91
69823;SHT31;57119;52.516;13.508;2022-07-29T04:42:05;15.57;75.55
69823;SHT31;57119;52.516;13.508;2022-07-29T04:44:31;15.61;75.89
69823;SHT31;57119;52.516;13.508;2022-07-29T04:46:57;15.63;75.00
69823;SHT31;57119;52.516;13.508;2022-07-29T04:49:22;15.61;74.70
69823;SHT31;57119;52.516;13.508;2022-07-29T04:51:48;15.75;75.07
69823;SHT31;57119;52.516;13.508;2022-07-29T04:54:13;15.78;74.63
69823;SHT31;57119;52.516;13.508;2022-07-29T04:56:39;15.83;74.12
69823;SHT31;57119;52.516;13.508;2022-07-29T04:59:04;15.87;74.83
69823;SHT31;57119;52.516;13.508;2022-07-29T05:01:29;15.87;73.96
69823;SHT31;57119;52.516;13.508;2022-07-29T05:03:55;15.94;73.98
69823;SHT31;57119;52.516;13.508;2022-07-29T05:06:20;15.98;74.33
69823;SHT31;57119;52.516;13.508;2022-07-29T05:08:45;16.11;74.04
69823;SHT31;57119;52.516;13.508;2022-07-29T05:11:10;16.15;74.31
69823;SHT31;57119;52.516;13.508;2022-07-29T05:13:36;16.13;72.84
69823;SHT31;57119;52.516;13.508;2022-07-29T05:16:02;16.18;72.90
69823;SHT31;57119;52.516;13.508;2022-07-29T05:18:27;16.39;73.22
69823;SHT31;57119;52.516;13.508;2022-07-29T05:20:53;16.46;72.62
69823;SHT31;57119;52.516;13.508;2022-07-29T05:23:18;16.50;73.14
69823;SHT31;57119;52.516;13.508;2022-07-29T05:25:44;16.66;72.88
69823;SHT31;57119;52.516;13.508;2022-07-29T05:28:09;16.70;72.38
69823;SHT31;57119;52.516;13.508;2022-07-29T05:30:35;16.73;71.97
69823;SHT31;57119;52.516;13.508;2022-07-29T05:33:00;16.64;71.76
69823;SHT31;57119;52.516;13.508;2022-07-29T05:35:26;16.79;73.03
69823;SHT31;57119;52.516;13.508;2022-07-29T05:37:51;16.84;72.17
69823;SHT31;57119;52.516;13.508;2022-07-29T05:40:17;16.88;71.42
69823;SHT31;57119;52.516;13.508;2022-07-29T05:42:42;16.95;71.03
69823;SHT31;57119;52.516;13.508;2022-07-29T05:45:08;16.92;71.09
69823;SHT31;57119;52.516;13.508;2022-07-29T05:47:34;16.98;71.08
69823;SHT31;57119;52.516;13.508;2022-07-29T05:49:59;17.10;70.88
69823;SHT31;57119;52.516;13.508;2022-07-29T05:52:24;17.22;71.19
69823;SHT31;57119;52.516;13.508;2022-07-29T05:54:50;17.29;70.40
69823;SHT31;57119;52.516;13.508;2022-07-29T05:57:20;17.39;70.34
69823;SHT31;57119;52.516;13.508;2022-07-29T05:59:46;17.48;69.28
69823;SHT31;57119;52.516;13.508;2022-07-29T06:02:12;17.52;69.38
69823;SHT31;57119;52.516;13.508;2022-07-29T06:04:37;17.73;69.01
69823;SHT31;57119;52.516;13.508;2022-07-29T06:07:03;17.91;68.89
69823;SHT31;57119;52.516;13.508;2022-07-29T06:09:29;17.85;67.85
69823;SHT31;57119;52.516;13.508;2022-07-29T06:11:54;18.08;67.25
69823;SHT31;57119;52.516;13.508;2022-07-29T06:14:19;18.13;67.78
69823;SHT31;57119;52.516;13.508;2022-07-29T06:16:45;18.61;66.21
69823;SHT31;57119;52.516;13.508;2022-07-29T06:19:10;18.93;65.70
69823;SHT31;57119;52.516;13.508;2022-07-29T06:21:36;19.23;65.60
69823;SHT31;57119;52.516;13.508;2022-07-29T06:24:04;19.21;64.26
69823;SHT31;57119;52.516;13.508;2022-07-29T06:26:30;19.62;64.48
69823;SHT31;57119;52.516;13.508;2022-07-29T06:28:55;20.09;63.93
69823;SHT31;57119;52.516;13.508;2022-07-29T06:31:20;20.27;62.33
69823;SHT31;57119;52.516;13.508;2022-07-29T06:33:46;20.17;61.89
69823;SHT31;57119;52.516;13.508;2022-07-29T06:36:11;20.25;61.96
69823;SHT31;57119;52.516;13.508;2022-07-29T06:38:36;19.98;61.16
69823;SHT31;57119;52.516;13.508;2022-07-29T06:41:03;19.74;62.40
69823;SHT31;57119;52.516;13.508;2022-07-29T06:43:35;20.09;60.77
69823;SHT31;57119;52.516;13.508;2022-07-29T06:46:04;20.10;61.73
69823;SHT31;57119;52.516;13.508;2022-07-29T06:48:30;20.13;61.44
69823;SHT31;57119;52.516;13.508;2022-07-29T06:50:56;20.32;62.03
69823;SHT31;57119;52.516;13.508;2022-07-29T06:53:21;20.30;61.19
69823;SHT31;57119;52.516;13.508;2022-07-29T06:55:47;20.15;60.30
69823;SHT31;57119;52.516;13.508;2022-07-29T06:58:12;20.36;61.67
69823;SHT31;57119;52.516;13.508;2022-07-29T07:00:41;20.36;61.09
69823;SHT31;57119;52.516;13.508;2022-07-29T07:03:06;20.46;61.41
69823;SHT31;57119;52.516;13.508;2022-07-29T07:05:31;20.37;60.81
69823;SHT31;57119;52.516;13.508;2022-07-29T07:07:57;20.46;61.30
69823;SHT31;57119;52.516;13.508;2022-07-29T07:10:22;20.51;61.25
69823;SHT31;57119;52.516;13.508;2022-07-29T07:12:48;20.61;60.02
69823;SHT31;57119;52.516;13.508;2022-07-29T07:15:13;20.50;60.17
69823;SHT31;57119;52.516;13.508;2022-07-29T07:17:38;20.78;60.51
69823;SHT31;57119;52.516;13.508;2022-07-29T07:20:05;21.32;59.54
69823;SHT31;57119;52.516;13.508;2022-07-29T07:22:31;21.84;56.61
69823;SHT31;57119;52.516;13.508;2022-07-29T07:24:56;21.70;56.56
69823;SHT31;57119;52.516;13.508;2022-07-29T07:27:21;22.01;56.29
69823;SHT31;57119;52.516;13.508;2022-07-29T07:29:47;22.28;55.74
69823;SHT31;57119;52.516;13.508;2022-07-29T07:32:12;22.51;56.02
69823;SHT31;57119;52.516;13.508;2022-07-29T07:34:38;22.48;54.72
69823;SHT31;57119;52.516;13.508;2022-07-29T07:37:04;22.80;55.87
69823;SHT31;57119;52.516;13.508;2022-07-29T07:39:30;22.76;55.15
69823;SHT31;57119;52.516;13.508;2022-07-29T07:41:55;23.34;54.62
69823;SHT31;57119;52.516;13.508;2022-07-29T07:44:20;24.19;52.88
69823;SHT31;57119;52.516;13.508;2022-07-29T07:46:46;24.58;52.55
69823;SHT31;57119;52.516;13.508;2022-07-29T07:49:11;24.78;50.77
69823;SHT31;57119;52.516;13.508;2022-07-29T07:51:37;25.46;49.58
69823;SHT31;57119;52.516;13.508;2022-07-29T07:54:03;25.64;49.23
69823;SHT31;57119;52.516;13.508;2022-07-29T07:56:28;26.08;49.06
69823;SHT31;57119;52.516;13.508;2022-07-29T07:58:54;25.46;51.06
69823;SHT31;57119;52.516;13.508;2022-07-29T08:01:19;26.29;48.38
69823;SHT31;57119;52.516;13.508;2022-07-29T08:03:48;26.63;48.08
69823;SHT31;57119;52.516;13.508;2022-07-29T08:06:13;26.39;46.33
69823;SHT31;57119;52.516;13.508;2022-07-29T08:08:39;27.08;46.86
69823;SHT31;57119;52.516;13.508;2022-07-29T08:11:04;27.59;46.32
69823;SHT31;57119;52.516;13.508;2022-07-29T08:13:31;27.62;44.36
69823;SHT31;57119;52.516;13.508;2022-07-29T08:15:57;28.57;44.80
69823;SHT31;57119;52.516;13.508;2022-07-29T08:18:24;29.08;43.96
69823;SHT31;57119;52.516;13.508;2022-07-29T08:20:50;28.61;42.66
69823;SHT31;57119;52.516;13.508;2022-07-29T08:23:15;28.03;42.62
69823;SHT31;57119;52.516;13.508;2022-07-29T08:25:41;26.91;44.05
69823;SHT31;57119;52.516;13.508;2022-07-29T08:28:07;28.44;43.70
69823;SHT31;57119;52.516;13.508;2022-07-29T08:30:33;27.90;41.15
69823;SHT31;57119;52.516;13.508;2022-07-29T08:32:59;29.06;42.11
69823;SHT31;57119;52.516;13.508;2022-07-29T08:35:24;29.06;40.37
69823;SHT31;57119;52.516;13.508;2022-07-29T08:37:51;29.54;40.15
69823;SHT31;57119;52.516;13.508;2022-07-29T08:40:17;30.57;39.72
69823;SHT31;57119;52.516;13.508;2022-07-29T08:42:42;30.16;40.41
69823;SHT31;57119;52.516;13.508;2022-07-29T08:45:08;29.36;41.86
69823;SHT31;57119;52.516;13.508;2022-07-29T08:47:33;28.00;42.13
69823;SHT31;57119;52.516;13.508;2022-07-29T08:50:03;28.67;43.53
69823;SHT31;57119;52.516;13.508;2022-07-29T08:52:31;27.95;41.80
69823;SHT31;57119;52.516;13.508;2022-07-29T08:54:58;28.21;42.82
69823;SHT31;57119;52.516;13.508;2022-07-29T08:57:24;28.55;41.77
69823;SHT31;57119;52.516;13.508;2022-07-29T08:59:50;27.37;43.17
69823;SHT31;57119;52.516;13.508;2022-07-29T09:02:21;28.78;42.11
69823;SHT31;57119;52.516;13.508;2022-07-29T09:04:48;27.72;42.34
69823;SHT31;57119;52.516;13.508;2022-07-29T09:07:15;27.82;43.04
69823;SHT31;57119;52.516;13.508;2022-07-29T09:09:41;26.62;44.12
69823;SHT31;57119;52.516;13.508;2022-07-29T09:12:08;27.11;43.70
69823;SHT31;57119;52.516;13.508;2022-07-29T09:14:33;27.27;44.50
69823;SHT31;57119;52.516;13.508;2022-07-29T09:16:59;27.97;45.37
69823;SHT31;57119;52.516;13.508;2022-07-29T09:21:50;29.18;42.35
69823;SHT31;57119;52.516;13.508;2022-07-29T09:27:00;30.91;39.26
69823;SHT31;57119;52.516;13.508;2022-07-29T09:29:26;30.29;38.04
69823;SHT31;57119;52.516;13.508;2022-07-29T09:31:54;31.38;38.65
69823;SHT31;57119;52.516;13.508;2022-07-29T09:34:25;30.00;38.84
69823;SHT31;57119;52.516;13.508;2022-07-29T09:36:53;30.37;37.84
69823;SHT31;57119;52.516;13.508;2022-07-29T09:39:34;29.61;38.13
69823;SHT31;57119;52.516;13.508;2022-07-29T09:42:05;29.09;40.20
69823;SHT31;57119;52.516;13.508;2022-07-29T09:44:42;29.45;39.38
69823;SHT31;57119;52.516;13.508;2022-07-29T09:47:07;27.78;41.01
69823;SHT31;57119;52.516;13.508;2022-07-29T09:49:56;27.62;42.00
69823;SHT31;57119;52.516;13.508;2022-07-29T09:52:20;27.11;41.82
69823;SHT31;57119;52.516;13.508;2022-07-29T09:54:46;27.52;41.65
69823;SHT31;57119;52.516;13.508;2022-07-29T09:57:28;27.47;40.68
69823;SHT31;57119;52.516;13.508;2022-07-29T10:00:01;27.92;40.59
69823;SHT31;57119;52.516;13.508;2022-07-29T10:02:32;28.24;40.62
69823;SHT31;57119;52.516;13.508;2022-07-29T10:05:00;27.30;40.47
69823;SHT31;57119;52.516;13.508;2022-07-29T10:07:26;28.20;41.32
69823;SHT31;57119;52.516;13.508;2022-07-29T10:09:55;28.89;40.40
69823;SHT31;57119;52.516;13.508;2022-07-29T10:12:22;31.27;37.85
69823;SHT31;57119;52.516;13.508;2022-07-29T10:14:48;31.63;34.69
69823;SHT31;57119;52.516;13.508;2022-07-29T10:17:14;31.96;35.43
69823;SHT31;57119;52.516;13.508;2022-07-29T10:19:40;30.53;34.76
69823;SHT31;57119;52.516;13.508;2022-07-29T10:22:08;30.11;34.66
69823;SHT31;57119;52.516;13.508;2022-07-29T10:24:34;32.24;34.32
69823;SHT31;57119;52.516;13.508;2022-07-29T10:27:03;30.64;34.35
69823;SHT31;57119;52.516;13.508;2022-07-29T10:29:28;31.53;34.26
69823;SHT31;57119;52.516;13.508;2022-07-29T10:32:30;32.02;34.06
69823;SHT31;57119;52.516;13.508;2022-07-29T10:43:33;31.73;35.70
69823;SHT31;57119;52.516;13.508;2022-07-29T10:46:02;32.76;34.44
69823;SHT31;57119;52.516;13.508;2022-07-29T10:48:28;32.07;33.69
69823;SHT31;57119;52.516;13.508;2022-07-29T10:51:04;33.32;33.49
69823;SHT31;57119;52.516;13.508;2022-07-29T10:53:49;31.63;33.76
69823;SHT31;57119;52.516;13.508;2022-07-29T10:56:24;31.62;33.21
69823;SHT31;57119;52.516;13.508;2022-07-29T11:01:52;32.16;32.61
69823;SHT31;57119;52.516;13.508;2022-07-29T11:07:15;35.64;32.54
69823;SHT31;57119;52.516;13.508;2022-07-29T11:09:41;34.96;30.90
69823;SHT31;57119;52.516;13.508;2022-07-29T11:15:15;33.73;31.21
69823;SHT31;57119;52.516;13.508;2022-07-29T11:20:43;30.88;34.77
69823;SHT31;57119;52.516;13.508;2022-07-29T11:23:34;31.06;35.78
69823;SHT31;57119;52.516;13.508;2022-07-29T11:26:15;30.08;35.66
69823;SHT31;57119;52.516;13.508;2022-07-29T11:29:00;29.56;37.02
69823;SHT31;57119;52.516;13.508;2022-07-29T11:39:34;32.31;35.38
69823;SHT31;57119;52.516;13.508;2022-07-29T11:45:07;35.15;32.01
69823;SHT31;57119;52.516;13.508;2022-07-29T11:47:39;35.30;31.81
69823;SHT31;57119;52.516;13.508;2022-07-29T11:50:11;33.98;33.67
69823;SHT31;57119;52.516;13.508;2022-07-29T11:52:41;32.96;34.42
69823;SHT31;57119;52.516;13.508;2022-07-29T11:55:17;34.90;32.65
69823;SHT31;57119;52.516;13.508;2022-07-29T11:57:55;34.73;32.35
69823;SHT31;57119;52.516;13.508;2022-07-29T12:00:31;36.06;32.09
69823;SHT31;57119;52.516;13.508;2022-07-29T12:03:01;35.18;32.69
69823;SHT31;57119;52.516;13.508;2022-07-29T12:05:38;35.74;33.00
69823;SHT31;57119;52.516;13.508;2022-07-29T12:08:05;33.42;35.66
69823;SHT31;57119;52.516;13.508;2022-07-29T12:10:31;32.72;36.31
69823;SHT31;57119;52.516;13.508;2022-07-29T12:12:56;32.21;37.17
69823;SHT31;57119;52.516;13.508;2022-07-29T12:15:22;32.68;36.64
69823;SHT31;57119;52.516;13.508;2022-07-29T12:17:49;32.58;36.76
69823;SHT31;57119;52.516;13.508;2022-07-29T12:20:23;34.72;36.21
69823;SHT31;57119;52.516;13.508;2022-07-29T12:22:48;34.32;34.52
69823;SHT31;57119;52.516;13.508;2022-07-29T12:25:14;32.24;35.94
69823;SHT31;57119;52.516;13.508;2022-07-29T12:27:42;31.06;37.37
69823;SHT31;57119;52.516;13.508;2022-07-29T12:30:13;32.45;36.04
69823;SHT31;57119;52.516;13.508;2022-07-29T12:32:44;33.53;34.82
69823;SHT31;57119;52.516;13.508;2022-07-29T12:35:20;34.26;34.35
69823;SHT31;57119;52.516;13.508;2022-07-29T12:37:47;35.26;33.80
69823;SHT31;57119;52.516;13.508;2022-07-29T12:40:14;34.39;34.34
69823;SHT31;57119;52.516;13.508;2022-07-29T12:43:17;35.97;34.34
69823;SHT31;57119;52.516;13.508;2022-07-29T12:45:45;35.35;33.26
69823;SHT31;57119;52.516;13.508;2022-07-29T12:48:11;36.36;32.85
69823;SHT31;57119;52.516;13.508;2022-07-29T12:50:52;37.12;31.15
69823;SHT31;57119;52.516;13.508;2022-07-29T12:53:18;37.11;31.56
69823;SHT31;57119;52.516;13.508;2022-07-29T12:55:46;38.31;31.48
69823;SHT31;57119;52.516;13.508;2022-07-29T12:58:28;36.29;31.05
69823;SHT31;57119;52.516;13.508;2022-07-29T13:06:46;38.41;29.05
69823;SHT31;57119;52.516;13.508;2022-07-29T13:09:14;38.93;30.66
69823;SHT31;57119;52.516;13.508;2022-07-29T13:11:47;38.04;30.02
69823;SHT31;57119;52.516;13.508;2022-07-29T13:14:29;37.59;31.26
69823;SHT31;57119;52.516;13.508;2022-07-29T13:17:10;35.14;33.95
69823;SHT31;57119;52.516;13.508;2022-07-29T13:19:41;33.32;35.17
69823;SHT31;57119;52.516;13.508;2022-07-29T13:27:19;32.20;36.13
69823;SHT31;57119;52.516;13.508;2022-07-29T13:29:46;32.24;36.93
69823;SHT31;57119;52.516;13.508;2022-07-29T13:32:12;31.72;39.67
69823;SHT31;57119;52.516;13.508;2022-07-29T13:34:37;30.66;38.61
69823;SHT31;57119;52.516;13.508;2022-07-29T13:37:03;30.90;38.51
69823;SHT31;57119;52.516;13.508;2022-07-29T13:39:28;31.52;39.00
69823;SHT31;57119;52.516;13.508;2022-07-29T13:41:53;33.94;36.79
69823;SHT31;57119;52.516;13.508;2022-07-29T13:44:19;35.54;33.57
69823;SHT31;57119;52.516;13.508;2022-07-29T13:46:44;36.64;33.35
69823;SHT31;57119;52.516;13.508;2022-07-29T13:49:10;36.44;32.07
69823;SHT31;57119;52.516;13.508;2022-07-29T13:51:36;36.81;31.27
69823;SHT31;57119;52.516;13.508;2022-07-29T13:54:05;36.37;32.80
69823;SHT31;57119;52.516;13.508;2022-07-29T13:56:33;32.41;36.58
69823;SHT31;57119;52.516;13.508;2022-07-29T13:58:59;32.23;37.15
69823;SHT31;57119;52.516;13.508;2022-07-29T14:01:26;32.38;36.97
69823;SHT31;57119;52.516;13.508;2022-07-29T14:03:52;32.41;38.24
69823;SHT31;57119;52.516;13.508;2022-07-29T14:06:18;34.42;35.79
69823;SHT31;57119;52.516;13.508;2022-07-29T14:08:44;35.00;33.45
69823;SHT31;57119;52.516;13.508;2022-07-29T14:11:09;36.26;33.29
69823;SHT31;57119;52.516;13.508;2022-07-29T14:13:34;35.44;34.41
69823;SHT31;57119;52.516;13.508;2022-07-29T14:16:00;35.27;34.24
69823;SHT31;57119;52.516;13.508;2022-07-29T14:18:26;34.99;34.63
69823;SHT31;57119;52.516;13.508;2022-07-29T14:20:51;35.62;34.17
69823;SHT31;57119;52.516;13.508;2022-07-29T14:23:17;31.75;37.04
69823;SHT31;57119;52.516;13.508;2022-07-29T14:25:42;31.02;38.24
69823;SHT31;57119;52.516;13.508;2022-07-29T14:28:08;32.33;36.61
69823;SHT31;57119;52.516;13.508;2022-07-29T14:30:33;34.94;34.33
69823;SHT31;57119;52.516;13.508;2022-07-29T14:32:58;35.10;33.67
69823;SHT31;57119;52.516;13.508;2022-07-29T14:35:24;34.02;34.32
69823;SHT31;57119;52.516;13.508;2022-07-29T14:37:49;34.63;32.86
69823;SHT31;57119;52.516;13.508;2022-07-29T14:40:14;34.51;34.49
69823;SHT31;57119;52.516;13.508;2022-07-29T14:42:40;35.57;32.83
69823;SHT31;57119;52.516;13.508;2022-07-29T14:45:07;36.19;31.53
69823;SHT31;57119;52.516;13.508;2022-07-29T14:47:32;36.53;32.04
69823;SHT31;57119;52.516;13.508;2022-07-29T14:50:02;37.17;31.50
69823;SHT31;57119;52.516;13.508;2022-07-29T14:52:28;34.00;32.53
69823;SHT31;57119;52.516;13.508;2022-07-29T14:54:56;36.54;32.64
69823;SHT31;57119;52.516;13.508;2022-07-29T14:57:24;36.71;30.84
69823;SHT31;57119;52.516;13.508;2022-07-29T14:59:50;36.64;29.33
69823;SHT31;57119;52.516;13.508;2022-07-29T15:02:15;37.32;29.62
69823;SHT31;57119;52.516;13.508;2022-07-29T15:04:41;36.13;32.65
69823;SHT31;57119;52.516;13.508;2022-07-29T15:07:06;34.80;32.36
69823;SHT31;57119;52.516;13.508;2022-07-29T15:09:31;35.51;33.40
69823;SHT31;57119;52.516;13.508;2022-07-29T15:11:57;36.41;32.41
69823;SHT31;57119;52.516;13.508;2022-07-29T15:14:24;36.44;33.48
69823;SHT31;57119;52.516;13.508;2022-07-29T15:16:49;36.27;30.43
69823;SHT31;57119;52.516;13.508;2022-07-29T15:19:14;36.53;31.63
69823;SHT31;57119;52.516;13.508;2022-07-29T15:21:40;35.20;31.66
69823;SHT31;57119;52.516;13.508;2022-07-29T15:24:07;36.13;31.89
69823;SHT31;57119;52.516;13.508;2022-07-29T15:26:33;34.14;33.57
69823;SHT31;57119;52.516;13.508;2022-07-29T15:28:59;35.18;33.89
69823;SHT31;57119;52.516;13.508;2022-07-29T15:31:27;34.89;33.62
69823;SHT31;57119;52.516;13.508;2022-07-29T15:33:52;34.66;33.77
69823;SHT31;57119;52.516;13.508;2022-07-29T15:36:18;33.19;35.33
69823;SHT31;57119;52.516;13.508;2022-07-29T15:38:44;31.72;37.31
69823;SHT31;57119;52.516;13.508;2022-07-29T15:41:13;32.65;36.47
69823;SHT31;57119;52.516;13.508;2022-07-29T15:43:43;33.90;35.49
69823;SHT31;57119;52.516;13.508;2022-07-29T15:46:10;34.57;34.51
69823;SHT31;57119;52.516;13.508;2022-07-29T15:48:55;34.11;34.77
69823;SHT31;57119;52.516;13.508;2022-07-29T15:51:21;33.81;34.12
69823;SHT31;57119;52.516;13.508;2022-07-29T15:53:46;35.13;33.51
69823;SHT31;57119;52.516;13.508;2022-07-29T15:56:11;35.03;32.80
69823;SHT31;57119;52.516;13.508;2022-07-29T15:58:37;34.83;33.83
69823;SHT31;57119;52.516;13.508;2022-07-29T16:01:02;34.44;33.69
69823;SHT31;57119;52.516;13.508;2022-07-29T16:03:28;32.98;34.09
69823;SHT31;57119;52.516;13.508;2022-07-29T16:05:53;34.08;34.91
69823;SHT31;57119;52.516;13.508;2022-07-29T16:08:19;33.61;34.02
69823;SHT31;57119;52.516;13.508;2022-07-29T16:10:44;32.95;35.09
69823;SHT31;57119;52.516;13.508;2022-07-29T16:13:09;32.64;34.89